Time;durP1;ratioP1;P1;durP2;ratioP2;P2;SDS_P1;SDS_P2;PMS_P1;PMS_P2;Temp;Humidity;BMP_temperature;BMP_pressure;BME280_temperature;BME280_humidity;BME280_pressure;Samples;Min_cycle;Max_cycle;Signal;HPM_P1;HPM_P2
2021/01/29 00:00:22;;;;;;;5.03;2.80;;;9.80;89.90;10.40;99125.00;;;;5015931;28;21179;-86
2021/01/29 00:02:51;;;;;;;6.57;3.40;;;9.80;89.40;10.40;99107.00;;;;5028776;28;20527;-86
2021/01/29 00:05:20;;;;;;;4.80;3.10;;;9.90;89.00;10.40;99100.00;;;;5013526;28;20456;-86
2021/01/29 00:07:49;;;;;;;7.45;4.00;;;9.90;88.60;10.40;99096.00;;;;5013539;28;20509;-86
2021/01/29 00:10:17;;;;;;;6.13;3.93;;;9.80;88.70;10.40;68568.00;;;;5015684;28;20425;-86
2021/01/29 00:12:45;;;;;;;9.05;5.03;;;9.80;88.50;10.40;99105.00;;;;5014629;28;20425;-86
2021/01/29 00:15:18;;;;;;;7.50;4.40;;;9.80;88.40;10.40;68565.00;;;;5016721;28;20471;-87
2021/01/29 00:17:46;;;;;;;7.55;5.00;;;9.80;88.40;10.40;99093.00;;;;5016223;28;20872;-86
2021/01/29 00:20:20;;;;;;;8.90;5.10;;;9.80;88.50;10.40;99089.00;;;;5012764;28;20416;-87
2021/01/29 00:22:48;;;;;;;7.10;5.30;;;9.80;88.40;10.30;99084.00;;;;5015625;28;20451;-86
2021/01/29 00:25:21;;;;;;;8.18;5.40;;;9.80;88.10;10.30;99087.00;;;;5011391;28;20425;-86
2021/01/29 00:27:49;;;;;;;5.68;4.47;;;9.80;87.70;10.30;99076.00;;;;5009055;28;20436;-87
2021/01/29 00:30:20;;;;;;;6.53;3.30;;;9.80;87.60;10.30;99076.00;;;;5010887;28;20464;-86
2021/01/29 00:32:48;;;;;;;6.05;2.50;;;9.80;87.80;10.40;99077.00;;;;5011417;28;20821;-85
2021/01/29 00:35:16;;;;;;;6.30;2.70;;;9.70;88.70;10.30;99086.00;;;;5014160;28;20906;-87
2021/01/29 00:37:44;;;;;;;7.72;2.92;;;9.70;88.00;52.70;161156.00;;;;5012451;28;20512;-87
2021/01/29 00:40:14;;;;;;;4.90;2.30;;;9.70;87.50;10.40;99069.00;;;;5013396;28;20420;-86
2021/01/29 00:42:42;;;;;;;4.53;1.60;;;9.70;87.50;10.40;99065.00;;;;5014709;28;20425;-86
2021/01/29 00:45:12;;;;;;;4.93;1.80;;;9.80;88.20;10.40;99050.00;;;;5012130;28;20431;-85
2021/01/29 00:47:40;;;;;;;4.35;1.60;;;9.80;87.20;10.40;99052.00;;;;5013822;28;20428;-85
2021/01/29 00:50:09;;;;;;;5.47;2.25;;;9.80;86.70;10.40;99057.00;;;;5016498;28;20504;-86
2021/01/29 00:52:37;;;;;;;4.40;1.65;;;9.80;86.60;10.40;99050.00;;;;5014882;28;20850;-86
2021/01/29 00:55:07;;;;;;;5.57;1.70;;;9.80;86.70;10.50;99040.00;;;;5015177;28;20495;-86
2021/01/29 00:57:42;;;;;;;4.50;1.58;;;9.80;86.40;10.50;99043.00;;;;5028186;28;20456;-86
2021/01/29 01:00:28;;;;;;;4.15;1.60;;;9.80;85.90;10.60;99036.00;;;;5011636;28;20431;-85
2021/01/29 01:03:04;;;;;;;4.03;1.60;;;9.90;85.70;10.70;99023.00;;;;5029231;28;20432;-85
2021/01/29 01:05:32;;;;;;;3.22;1.40;;;9.90;85.70;10.80;99027.00;;;;5029765;28;20436;-84
2021/01/29 01:08:00;;;;;;;3.60;1.50;;;9.80;85.80;10.70;68637.00;;;;5012450;28;20530;-86
2021/01/29 01:10:57;;;;;;;4.97;1.88;;;9.90;85.50;10.70;98990.00;;;;5012114;28;20424;-88
2021/01/29 01:13:54;;;;;;;4.10;1.60;;;9.90;85.20;10.70;99002.00;;;;5004449;28;20428;-86
2021/01/29 01:16:54;;;;;;;3.83;1.40;;;9.90;84.70;10.70;98984.00;;;;4980660;28;20460;-86
2021/01/29 01:19:41;;;;;;;5.10;1.70;;;9.80;84.10;10.70;98984.00;;;;5028350;28;20421;-86
2021/01/29 01:22:09;;;;;;;4.13;1.55;;;10.00;83.00;10.70;98987.00;;;;5011653;28;21366;-86
2021/01/29 01:24:57;;;;;;;2.90;1.20;;;10.00;83.20;10.70;98984.00;;;;5009847;28;20440;-86
2021/01/29 01:27:26;;;;;;;4.93;1.90;;;10.00;83.20;10.60;98983.00;;;;5009433;28;20479;-86
2021/01/29 01:30:34;;;;;;;5.80;2.10;;;10.00;82.70;10.70;98988.00;;;;5026749;28;20440;-85
2021/01/29 01:33:08;;;;;;;3.75;1.50;;;10.00;82.80;10.70;98980.00;;;;5011234;28;20431;-86
2021/01/29 01:36:13;;;;;;;5.25;1.50;;;10.00;82.80;10.70;98977.00;;;;5000939;28;20436;-84
2021/01/29 01:38:46;;;;;;;2.40;1.30;;;10.00;83.10;217.30;161305.00;;;;5030149;28;20488;-84
2021/01/29 01:41:15;;;;;;;3.85;1.60;;;10.00;82.40;10.80;99003.00;;;;5014685;28;20424;-86
2021/01/29 01:43:59;;;;;;;3.90;1.70;;;10.00;82.30;10.70;98979.00;;;;5020678;28;20413;-86
2021/01/29 01:46:29;;;;;;;3.28;1.40;;;10.10;82.30;10.80;98969.00;;;;5032821;28;20428;-85
2021/01/29 01:49:22;;;;;;;2.97;1.38;;;10.10;82.80;10.80;98969.00;;;;5024630;28;20425;-84
2021/01/29 01:52:35;;;;;;;3.30;1.30;;;10.10;82.60;10.70;98947.00;;;;5016135;28;20448;-84
2021/01/29 01:55:25;;;;;;;3.50;1.40;;;10.10;82.70;10.70;98958.00;;;;5036938;28;20475;-84
2021/01/29 01:58:13;;;;;;;1.77;1.10;;;10.10;82.90;10.70;98949.00;;;;5027163;28;20425;-85
2021/01/29 02:01:04;;;;;;;4.45;1.45;;;10.00;83.50;10.60;98928.00;;;;5030602;28;20412;-87
2021/01/29 02:03:56;;;;;;;3.38;1.30;;;10.10;83.80;10.60;98933.00;;;;5029115;28;20433;-85
2021/01/29 02:07:12;;;;;;;4.20;1.60;;;10.10;84.60;10.70;98913.00;;;;5014082;28;20798;-85
2021/01/29 02:10:08;;;;;;;2.10;1.00;;;10.00;85.40;10.80;98919.00;;;;5021229;28;20416;-86
2021/01/29 02:12:38;;;;;;;4.63;1.20;;;10.00;84.50;10.80;98893.00;;;;5011389;28;20431;-86
2021/01/29 02:15:18;;;;;;;2.45;1.30;;;10.00;84.80;10.90;98884.00;;;;5029086;28;20443;-87
2021/01/29 02:18:10;;;;;;;3.55;1.35;;;9.90;85.90;217.30;161358.00;;;;5013135;28;20424;-87
2021/01/29 02:21:18;;;;;;;3.97;1.30;;;10.00;84.80;10.70;68646.00;;;;5029581;28;20452;-86
2021/01/29 02:25:04;;;;;;;4.95;2.20;;;10.00;85.40;10.70;98881.00;;;;5037080;28;20416;-88
2021/01/29 02:27:46;;;;;;;2.67;1.45;;;9.90;87.70;10.60;98865.00;;;;5021718;28;20417;-87
2021/01/29 02:30:54;;;;;;;4.20;1.50;;;9.80;88.80;10.60;98860.00;;;;5031512;28;20427;-90
2021/01/29 02:34:25;;;;;;;3.30;1.70;;;9.80;90.00;10.60;98854.00;;;;5031563;28;20458;-89
2021/01/29 02:38:15;;;;;;;3.92;1.73;;;9.70;90.50;10.60;98837.00;;;;5035282;28;20424;-91
2021/01/29 02:41:05;;;;;;;5.00;1.55;;;9.70;91.00;10.60;98838.00;;;;5035499;28;20439;-88
2021/01/29 02:44:06;;;;;;;2.97;1.60;;;9.60;91.30;10.60;98824.00;;;;5035632;28;20475;-88
2021/01/29 02:46:56;;;;;;;4.20;1.70;;;9.60;91.80;10.60;98831.00;;;;5035483;28;20480;-88
2021/01/29 02:50:19;;;;;;;3.08;1.70;;;9.70;91.70;10.60;98802.00;;;;5001146;28;20417;-87
2021/01/29 02:53:25;;;;;;;4.00;1.90;;;9.70;92.00;10.60;98803.00;;;;5037441;28;20428;-86
2021/01/29 02:56:06;;;;;;;3.85;2.00;;;9.70;92.40;10.50;98794.00;;;;5036754;28;20417;-89
2021/01/29 02:58:51;;;;;;;6.03;2.40;;;9.60;92.70;10.50;98782.00;;;;5035060;28;20455;-91
2021/01/29 03:02:00;;;;;;;4.25;2.90;;;9.60;92.80;10.40;98779.00;;;;5031783;28;20828;-86
2021/01/29 03:04:56;;;;;;;6.15;2.50;;;9.60;93.20;10.50;98769.00;;;;5021104;28;20550;-87
2021/01/29 03:07:29;;;;;;;4.43;2.60;;;9.60;93.40;10.50;98672.00;;;;5015612;28;20428;-87
2021/01/29 03:10:32;;;;;;;5.80;2.95;;;9.60;93.60;10.40;98738.00;;;;5030385;28;20427;-87
2021/01/29 03:13:26;;;;;;;7.57;3.60;;;9.50;93.80;10.50;98736.00;;;;5026919;28;20447;-87
2021/01/29 03:16:18;;;;;;;4.93;3.40;;;9.60;94.10;10.50;98686.00;;;;5019789;28;20447;-89
2021/01/29 03:19:13;;;;;;;6.80;3.80;;;9.50;94.20;10.50;98716.00;;;;5014111;28;20475;-87
2021/01/29 03:22:12;;;;;;;5.93;3.88;;;9.50;94.40;10.60;98725.00;;;;5014772;28;20420;-87
2021/01/29 03:25:07;;;;;;;8.60;3.90;;;9.60;94.50;10.60;98704.00;;;;5015120;28;20415;-86
2021/01/29 03:27:58;;;;;;;8.52;4.78;;;9.60;94.60;217.30;161277.00;;;;5029887;28;20467;-86
2021/01/29 03:30:49;;;;;;;8.43;4.90;;;9.60;94.60;10.60;68605.00;;;;5029340;28;20408;-86
2021/01/29 03:33:39;;;;;;;9.48;5.43;;;9.60;94.70;10.70;68622.00;;;;5009861;28;20506;-86
2021/01/29 03:36:50;;;;;;;9.10;5.10;;;9.60;94.80;10.60;98679.00;;;;4946868;29;21403;-87
2021/01/29 03:39:38;;;;;;;6.80;5.17;;;9.60;94.80;217.30;161277.00;;;;5006329;28;20790;-87
2021/01/29 03:42:35;;;;;;;8.67;5.83;;;9.60;94.90;217.30;161279.00;;;;5006673;28;20501;-88
2021/01/29 03:45:32;;;;;;;6.85;5.95;;;9.60;94.90;10.70;98643.00;;;;5007447;28;20779;-87
2021/01/29 03:48:27;;;;;;;8.68;6.00;;;9.60;95.00;10.60;98643.00;;;;5006303;28;21154;-88
2021/01/29 03:51:18;;;;;;;6.80;5.47;;;9.70;95.00;10.60;98631.00;;;;5007413;28;21523;-88
2021/01/29 03:54:12;;;;;;;8.73;5.95;;;9.70;95.00;10.70;98633.00;;;;5009970;28;20428;-87
2021/01/29 03:57:12;;;;;;;7.33;6.40;;;9.70;95.10;10.60;98618.00;;;;5009775;28;20440;-87
2021/01/29 04:00:12;;;;;;;8.60;6.40;;;9.70;95.10;10.70;98600.00;;;;5010416;28;20432;-87
2021/01/29 04:03:08;;;;;;;10.25;7.28;;;9.70;95.10;10.80;98618.00;;;;5007589;28;20468;-88
2021/01/29 04:06:05;;;;;;;14.00;8.95;;;9.70;95.20;10.80;98604.00;;;;5007209;28;20798;-87
2021/01/29 04:09:00;;;;;;;13.75;10.20;;;9.70;95.20;10.70;98589.00;;;;5006877;28;20431;-88
2021/01/29 04:11:50;;;;;;;16.80;12.93;;;9.70;95.10;52.70;161234.00;;;;5006331;28;20937;-87
2021/01/29 04:14:36;;;;;;;16.67;13.75;;;9.70;95.20;52.70;161200.00;;;;5022683;28;21340;-87
2021/01/29 04:17:12;;;;;;;17.47;14.67;;;9.70;95.30;52.70;161210.00;;;;5005558;28;20512;-87
2021/01/29 04:19:45;;;;;;;18.90;15.40;;;9.70;95.40;10.50;98573.00;;;;5007293;28;20424;-88
2021/01/29 04:22:21;;;;;;;19.67;15.75;;;9.70;95.40;10.70;98558.00;;;;5005564;28;20835;-87
2021/01/29 04:24:54;;;;;;;20.80;15.50;;;9.70;95.50;10.80;98558.00;;;;5006000;28;20551;-89
2021/01/29 04:27:30;;;;;;;18.23;15.10;;;9.90;95.60;10.70;98540.00;;;;5007439;28;20539;-89
2021/01/29 04:30:05;;;;;;;15.93;13.80;;;9.80;95.60;10.70;98536.00;;;;5023663;28;20826;-89
2021/01/29 04:32:38;;;;;;;19.25;15.07;;;9.90;95.60;10.70;98527.00;;;;5014051;28;20417;-89
2021/01/29 04:35:10;;;;;;;18.98;14.05;;;9.80;95.60;10.70;98530.00;;;;5014050;28;20440;-89
2021/01/29 04:37:43;;;;;;;15.63;13.77;;;9.90;95.60;10.60;98530.00;;;;5011485;28;20443;-89
2021/01/29 04:40:27;;;;;;;17.00;14.40;;;9.90;95.60;10.60;98512.00;;;;5012975;28;20428;-92
2021/01/29 04:43:30;;;;;;;15.27;12.90;;;9.90;95.60;10.60;98509.00;;;;5009028;28;20508;-89
2021/01/29 04:46:32;;;;;;;15.75;12.60;;;9.90;95.60;10.70;98497.00;;;;5006473;28;20499;-89
2021/01/29 04:49:12;;;;;;;16.63;12.10;;;9.90;95.60;10.70;98486.00;;;;5025909;28;20456;-89
2021/01/29 04:52:01;;;;;;;13.55;11.50;;;9.90;95.60;10.70;98478.00;;;;5009663;28;20417;-89
2021/01/29 04:54:56;;;;;;;14.02;11.57;;;9.90;95.60;10.70;98468.00;;;;5008640;28;20459;-89
2021/01/29 04:57:52;;;;;;;14.77;12.00;;;10.00;95.20;10.80;98450.00;;;;5026097;28;20417;-89
2021/01/29 05:01:34;;;;;;;15.90;12.68;;;10.00;95.30;10.80;98446.00;;;;5009494;28;20782;-89
2021/01/29 05:05:11;;;;;;;14.40;11.90;;;10.00;95.20;217.30;161338.00;;;;5023711;28;20782;-90
2021/01/29 05:08:35;;;;;;;13.25;11.63;;;10.00;95.20;10.70;98420.00;;;;5014606;28;21020;-89
2021/01/29 05:12:03;;;;;;;12.57;11.27;;;10.00;95.20;10.80;98420.00;;;;5016153;28;20425;-88
2021/01/29 05:15:40;;;;;;;12.18;10.40;;;10.00;95.20;10.80;98405.00;;;;5012347;28;20424;-88
2021/01/29 05:19:01;;;;;;;16.00;11.77;;;10.00;95.20;10.80;98397.00;;;;4927722;28;20618;-88
2021/01/29 05:22:01;;;;;;;12.85;11.20;;;10.00;95.30;10.80;98397.00;;;;5008633;28;20427;-88
2021/01/29 05:25:05;;;;;;;13.10;11.70;;;10.00;95.30;10.80;98376.00;;;;5008550;28;20428;-88
2021/01/29 05:28:29;;;;;;;14.20;12.25;;;10.00;95.30;10.80;98382.00;;;;5024542;28;20441;-90
2021/01/29 05:31:40;;;;;;;15.57;13.93;;;10.00;95.30;10.90;98353.00;;;;5004399;28;20446;-89
2021/01/29 05:34:38;;;;;;;16.70;14.63;;;10.00;95.30;10.80;98357.00;;;;5033831;28;20413;-89
2021/01/29 05:37:54;;;;;;;16.37;14.70;;;10.00;95.30;10.70;98338.00;;;;5034656;28;20435;-88
2021/01/29 05:40:49;;;;;;;16.77;14.30;;;10.00;95.30;10.80;68642.00;;;;5033067;28;20425;-88
2021/01/29 05:43:43;;;;;;;14.20;12.80;;;10.00;95.30;10.80;98318.00;;;;5026546;28;20440;-88
2021/01/29 05:46:21;;;;;;;14.20;12.00;;;10.00;95.30;10.80;98315.00;;;;5011086;28;20483;-88
2021/01/29 05:49:22;;;;;;;12.30;11.00;;;10.10;95.30;10.80;98288.00;;;;5006101;28;20456;-88
2021/01/29 05:52:31;;;;;;;11.60;10.13;;;10.10;95.30;10.80;68659.00;;;;5009000;28;20442;-88
2021/01/29 05:55:27;;;;;;;8.63;7.43;;;10.10;95.30;10.80;98294.00;;;;5007268;28;20621;-88
2021/01/29 05:58:47;;;;;;;7.95;7.15;;;10.10;95.60;10.70;98258.00;;;;5007849;28;20491;-88
2021/01/29 06:01:52;;;;;;;8.38;6.90;;;10.10;95.30;10.80;98249.00;;;;5026596;28;20436;-88
2021/01/29 06:05:09;;;;;;;7.30;5.90;;;10.10;95.30;10.80;98254.00;;;;5008818;28;20425;-88
2021/01/29 06:08:19;;;;;;;6.90;6.20;;;10.10;95.30;10.80;98244.00;;;;4934455;29;20467;-86
2021/01/29 06:11:18;;;;;;;7.20;6.50;;;10.10;95.30;217.30;161333.00;;;;5009579;28;20881;-87
2021/01/29 06:14:26;;;;;;;7.18;6.47;;;10.10;95.30;10.80;98238.00;;;;5014779;28;20417;-86
2021/01/29 06:17:19;;;;;;;7.90;7.07;;;10.10;95.20;10.80;98212.00;;;;5032079;28;20417;-87
2021/01/29 06:20:25;;;;;;;7.90;7.00;;;10.10;95.20;217.30;161342.00;;;;5030805;28;20508;-87
2021/01/29 06:23:29;;;;;;;8.10;7.40;;;10.10;95.20;10.80;98223.00;;;;5032322;28;20447;-88
2021/01/29 06:26:27;;;;;;;9.40;8.45;;;10.10;95.20;10.80;68646.00;;;;5031559;28;20456;-86
2021/01/29 06:29:25;;;;;;;9.02;8.13;;;10.10;95.20;10.70;98226.00;;;;5019945;28;20495;-89
2021/01/29 06:32:43;;;;;;;8.75;7.95;;;10.10;95.20;10.80;98228.00;;;;5012122;28;20523;-89
2021/01/29 06:35:46;;;;;;;8.65;7.80;;;10.10;95.30;10.80;98223.00;;;;5009898;28;20429;-89
2021/01/29 06:38:32;;;;;;;7.60;6.80;;;10.10;95.30;10.80;98222.00;;;;5010420;28;20432;-89
2021/01/29 06:41:38;;;;;;;8.05;7.35;;;10.10;95.20;10.70;98218.00;;;;5010729;28;20825;-90
2021/01/29 06:44:23;;;;;;;7.68;6.97;;;10.10;95.10;10.80;98203.00;;;;4997290;28;20460;-88
2021/01/29 06:47:07;;;;;;;7.60;6.90;;;10.10;95.10;10.80;98223.00;;;;5013916;28;20447;-89
2021/01/29 06:50:24;;;;;;;8.07;7.28;;;10.10;95.10;10.80;98220.00;;;;5030024;28;20930;-89
2021/01/29 06:53:32;;;;;;;7.03;6.32;;;10.10;95.10;10.80;98226.00;;;;4986953;28;20428;-89
2021/01/29 06:56:51;;;;;;;5.00;4.60;;;10.10;95.10;10.70;98234.00;;;;5011037;28;20428;-89
2021/01/29 06:59:42;;;;;;;2.40;2.00;;;10.10;94.90;10.70;98248.00;;;;5001060;28;20458;-90
2021/01/29 07:03:15;;;;;;;1.83;1.50;;;10.00;94.30;10.60;98267.00;;;;5010833;28;20546;-88
2021/01/29 07:06:24;;;;;;;1.60;1.02;;;10.00;93.60;10.70;98269.00;;;;5008847;28;20695;-87
2021/01/29 07:09:09;;;;;;;2.60;1.10;;;10.00;93.20;10.70;98284.00;;;;5011718;28;20428;-88
2021/01/29 07:12:01;;;;;;;2.00;1.10;;;10.10;93.00;10.70;98293.00;;;;5023766;28;20432;-88
2021/01/29 07:14:54;;;;;;;1.50;0.98;;;10.10;92.60;10.60;98304.00;;;;5008555;28;20893;-88
2021/01/29 07:18:02;;;;;;;1.40;0.90;;;10.00;92.30;10.50;98297.00;;;;5008151;28;20432;-87
2021/01/29 07:20:42;;;;;;;1.35;0.90;;;10.00;91.50;10.40;98315.00;;;;5002445;28;21105;-87
2021/01/29 07:23:55;;;;;;;1.40;0.90;;;9.80;91.90;10.40;98316.00;;;;5009325;28;20440;-87
2021/01/29 07:26:41;;;;;;;1.67;0.98;;;9.70;92.40;10.30;98340.00;;;;5007808;28;20427;-87
2021/01/29 07:29:38;;;;;;;2.20;0.80;;;9.70;92.30;10.20;68527.00;;;;5009762;28;20475;-87
2021/01/29 07:32:16;;;;;;;2.10;0.90;;;9.70;92.00;10.20;98362.00;;;;5024851;28;20425;-87
2021/01/29 07:34:52;;;;;;;1.80;0.80;;;9.60;92.00;10.10;98373.00;;;;5008826;28;20543;-87
2021/01/29 07:38:02;;;;;;;1.98;0.80;;;9.50;92.10;10.10;98378.00;;;;5010321;28;20452;-86
2021/01/29 07:40:53;;;;;;;1.30;0.80;;;9.40;92.00;10.00;98378.00;;;;5025391;28;20504;-86
2021/01/29 07:43:47;;;;;;;1.80;0.70;;;9.30;92.20;10.00;98374.00;;;;5008558;28;20432;-85
2021/01/29 07:46:40;;;;;;;1.40;0.80;;;9.30;92.50;10.00;98391.00;;;;5007246;28;20425;-85
2021/01/29 07:49:38;;;;;;;1.70;0.70;;;9.30;92.80;9.90;98381.00;;;;5006808;28;20513;-85
2021/01/29 07:52:32;;;;;;;2.03;0.80;;;9.30;92.40;10.00;98390.00;;;;5006870;28;20455;-85
2021/01/29 07:55:22;;;;;;;1.20;0.85;;;9.30;92.50;10.00;98400.00;;;;5006246;28;20433;-84
2021/01/29 07:58:22;;;;;;;1.58;1.20;;;9.30;92.80;10.00;98397.00;;;;5025410;28;20428;-85
2021/01/29 08:01:17;;;;;;;2.50;1.10;;;9.30;93.20;10.10;98401.00;;;;5009152;28;20900;-85
2021/01/29 08:04:29;;;;;;;1.90;1.10;;;9.30;93.40;217.30;160988.00;;;;5011048;28;20440;-86
2021/01/29 08:07:07;;;;;;;2.10;1.20;;;9.30;93.40;10.00;98394.00;;;;4986016;28;20527;-84
2021/01/29 08:09:39;;;;;;;1.52;0.90;;;9.30;93.60;9.90;68462.00;;;;5015912;28;20421;-85
2021/01/29 08:12:12;;;;;;;1.77;0.90;;;9.20;93.50;9.90;98416.00;;;;5020562;28;20420;-84
2021/01/29 08:15:05;;;;;;;2.00;1.00;;;9.20;93.50;9.90;98401.00;;;;5019929;28;21025;-85
2021/01/29 08:18:21;;;;;;;2.15;0.82;;;9.20;93.50;9.80;98411.00;;;;5049656;28;20463;-85
2021/01/29 08:21:33;;;;;;;2.40;1.00;;;9.20;93.30;9.80;98421.00;;;;5034926;28;20436;-85
2021/01/29 08:24:11;;;;;;;1.30;0.90;;;9.10;93.40;9.80;98414.00;;;;5032652;28;20409;-84
2021/01/29 08:27:03;;;;;;;1.40;0.95;;;9.10;93.50;9.70;98403.00;;;;5032397;28;20476;-83
2021/01/29 08:30:23;;;;;;;2.00;0.95;;;9.10;93.40;9.70;98438.00;;;;5033401;28;20413;-84
2021/01/29 08:33:37;;;;;;;2.40;0.95;;;9.00;93.40;9.70;98419.00;;;;5019034;28;20437;-82
2021/01/29 08:36:32;;;;;;;2.10;1.00;;;9.00;93.60;9.70;98437.00;;;;5019989;28;20409;-83
2021/01/29 08:39:09;;;;;;;2.20;0.90;;;9.00;93.40;9.80;98426.00;;;;5038847;28;20459;-83
2021/01/29 08:41:55;;;;;;;2.55;0.90;;;9.00;93.20;9.70;98433.00;;;;5036333;28;20417;-83
2021/01/29 08:44:57;;;;;;;2.80;1.23;;;9.00;93.10;9.70;98418.00;;;;5022008;28;20437;-84
2021/01/29 08:47:48;;;;;;;2.75;1.00;;;9.00;93.20;9.70;98420.00;;;;5023547;28;20417;-83
2021/01/29 08:50:31;;;;;;;2.88;1.40;;;9.00;93.50;9.80;98428.00;;;;5020322;28;20431;-84
2021/01/29 08:53:31;;;;;;;2.40;1.40;;;9.00;93.30;9.90;98436.00;;;;5017222;28;22424;-83
2021/01/29 08:56:10;;;;;;;2.42;1.38;;;9.10;93.40;9.90;98424.00;;;;5016651;28;20433;-83
2021/01/29 08:58:50;;;;;;;3.20;1.20;;;9.10;93.30;9.80;98440.00;;;;5033003;28;20451;-84
2021/01/29 09:01:26;;;;;;;2.90;1.20;;;9.10;93.10;9.80;98446.00;;;;5015935;28;20498;-82
2021/01/29 09:04:00;;;;;;;2.50;0.98;;;9.10;93.10;217.30;160956.00;;;;5032466;28;20421;-83
2021/01/29 09:06:38;;;;;;;2.20;1.00;;;9.20;93.10;9.90;98437.00;;;;5019813;28;20531;-82
2021/01/29 09:09:09;;;;;;;2.75;1.10;;;9.20;93.00;217.30;160966.00;;;;5033174;28;20428;-83
2021/01/29 09:11:42;;;;;;;2.80;1.10;;;9.20;92.90;10.00;98435.00;;;;5046455;28;20428;-83
2021/01/29 09:14:20;;;;;;;4.03;1.77;;;9.30;92.90;10.10;98460.00;;;;5021579;28;20501;-83
2021/01/29 09:16:48;;;;;;;4.70;1.00;;;9.30;92.70;10.10;98466.00;;;;5019618;28;20504;-84
2021/01/29 09:19:19;;;;;;;3.28;1.20;;;9.40;92.60;10.20;98462.00;;;;5018012;28;20503;-82
2021/01/29 09:22:02;;;;;;;2.28;0.95;;;9.40;92.30;217.30;161067.00;;;;5015890;28;20433;-84
2021/01/29 09:24:52;;;;;;;2.58;1.25;;;9.50;92.00;10.20;68517.00;;;;5015900;28;20888;-83
2021/01/29 09:27:45;;;;;;;3.78;1.20;;;9.60;91.60;52.70;161055.00;;;;5033399;28;20524;-84
2021/01/29 09:30:22;;;;;;;3.20;1.20;;;9.60;91.20;10.30;68552.00;;;;5007635;28;20424;-84
2021/01/29 09:33:11;;;;;;;3.28;1.10;;;9.60;90.90;10.40;98479.00;;;;5018075;28;20435;-85
2021/01/29 09:35:52;;;;;;;3.80;1.30;;;9.70;90.90;10.50;98469.00;;;;5017993;28;20420;-85
2021/01/29 09:38:25;;;;;;;3.97;1.20;;;9.80;90.30;10.60;98502.00;;;;5017702;28;20429;-85
2021/01/29 09:41:12;;;;;;;3.37;1.40;;;9.80;89.60;10.60;98496.00;;;;5015426;28;20463;-84
2021/01/29 09:43:59;;;;;;;4.65;1.90;;;9.90;88.10;10.70;98497.00;;;;5024667;28;20471;-85
2021/01/29 09:46:32;;;;;;;4.93;1.60;;;10.00;85.20;10.80;98501.00;;;;5027623;28;20478;-85
2021/01/29 09:49:05;;;;;;;6.82;2.00;;;10.00;82.60;10.80;98493.00;;;;5044820;28;20427;-85
2021/01/29 09:51:59;;;;;;;5.03;1.73;;;10.10;80.60;11.00;98512.00;;;;5030487;28;20898;-85
2021/01/29 09:54:38;;;;;;;4.93;1.65;;;10.20;81.80;11.00;98489.00;;;;5047050;28;20432;-86
2021/01/29 09:57:12;;;;;;;6.40;2.30;;;10.20;80.20;11.00;98515.00;;;;5030766;28;20521;-86
2021/01/29 09:59:51;;;;;;;6.30;2.13;;;10.30;78.20;11.20;98523.00;;;;5029604;28;20416;-86
2021/01/29 10:02:35;;;;;;;7.95;2.20;;;10.40;78.00;11.30;98537.00;;;;5034816;28;20421;-87
2021/01/29 10:05:28;;;;;;;6.13;2.20;;;10.50;78.50;11.40;98535.00;;;;5034180;28;20443;-86
2021/01/29 10:08:12;;;;;;;6.95;2.10;;;10.50;76.40;11.50;98526.00;;;;5050162;28;20467;-86
2021/01/29 10:11:05;;;;;;;8.07;2.22;;;10.50;77.30;11.50;98520.00;;;;5033817;28;20504;-86
2021/01/29 10:14:01;;;;;;;5.65;2.20;;;10.60;74.70;11.60;68839.00;;;;5031860;28;20425;-87
2021/01/29 10:16:39;;;;;;;9.65;2.50;;;10.60;74.90;217.30;161670.00;;;;5052963;28;20436;-87
2021/01/29 10:19:41;;;;;;;10.25;2.53;;;10.70;73.00;11.70;98540.00;;;;5035928;28;20421;-86
2021/01/29 10:22:46;;;;;;;7.68;2.35;;;10.70;72.70;52.70;161711.00;;;;4970675;28;20453;-86
2021/01/29 10:25:38;;;;;;;9.63;2.83;;;10.70;72.30;52.70;161812.00;;;;4981975;28;20423;-86
2021/01/29 10:28:36;;;;;;;7.93;2.45;;;10.80;71.40;11.80;68892.00;;;;5032933;28;20428;-86
2021/01/29 10:31:07;;;;;;;9.27;2.47;;;10.80;71.00;52.70;161755.00;;;;5031077;28;20424;-88
2021/01/29 10:33:37;;;;;;;9.50;2.57;;;10.80;68.50;217.30;161767.00;;;;5031212;28;20425;-85
2021/01/29 10:36:19;;;;;;;6.47;1.90;;;10.80;69.40;11.90;98537.00;;;;5055089;28;20415;-87
2021/01/29 10:38:53;;;;;;;7.85;2.30;;;10.80;67.80;11.90;98546.00;;;;5047373;28;20417;-87
2021/01/29 10:41:33;;;;;;;9.85;3.38;;;10.90;66.10;12.00;98553.00;;;;5034821;28;20397;-89
2021/01/29 10:44:10;;;;;;;8.55;2.90;;;11.00;65.60;12.10;98567.00;;;;5025607;28;20476;-87
2021/01/29 10:47:15;;;;;;;7.55;2.20;;;11.00;64.00;12.20;98583.00;;;;5022371;28;20425;-87
2021/01/29 10:49:55;;;;;;;7.37;2.57;;;11.10;64.30;12.20;68962.00;;;;5017003;28;20523;-86
2021/01/29 10:52:41;;;;;;;10.55;3.22;;;11.20;63.20;12.30;98566.00;;;;5017059;28;21243;-87
2021/01/29 10:55:22;;;;;;;9.20;2.80;;;11.20;62.60;12.40;98585.00;;;;5013943;28;20436;-88
2021/01/29 10:58:22;;;;;;;11.95;3.08;;;11.30;62.40;12.40;98571.00;;;;5011681;28;20429;-87
2021/01/29 11:00:54;;;;;;;12.93;2.80;;;11.40;58.50;12.60;98579.00;;;;5013738;28;20570;-87
2021/01/29 11:03:51;;;;;;;9.35;2.88;;;11.50;59.40;12.70;98586.00;;;;5013292;28;20421;-86
2021/01/29 11:06:24;;;;;;;9.70;3.10;;;11.50;55.30;12.90;98586.00;;;;5029072;28;20544;-86
2021/01/29 11:08:55;;;;;;;10.48;2.90;;;11.70;54.60;12.90;98566.00;;;;5014838;28;20428;-87
2021/01/29 11:11:33;;;;;;;9.60;3.08;;;12.00;53.00;217.30;162261.00;;;;5012095;28;20425;-87
2021/01/29 11:14:17;;;;;;;10.68;3.05;;;11.90;51.20;217.30;162283.00;;;;5031289;28;20433;-88
2021/01/29 11:16:50;;;;;;;9.02;2.63;;;11.90;52.90;13.30;98576.00;;;;5016758;28;20456;-87
2021/01/29 11:19:24;;;;;;;8.45;2.67;;;12.00;53.00;13.40;98583.00;;;;5015537;28;20426;-87
2021/01/29 11:22:16;;;;;;;10.95;3.20;;;12.20;51.50;13.50;98586.00;;;;5014491;28;20432;-87
2021/01/29 11:25:28;;;;;;;10.15;3.30;;;12.30;50.50;13.70;98600.00;;;;5014338;28;20440;-87
2021/01/29 11:28:03;;;;;;;11.27;2.95;;;12.40;49.80;13.60;98615.00;;;;5016457;28;20567;-87
2021/01/29 11:30:37;;;;;;;6.70;2.40;;;12.40;48.80;13.50;98615.00;;;;5047664;28;20432;-87
2021/01/29 11:33:08;;;;;;;11.32;3.00;;;12.40;48.90;13.50;98613.00;;;;5030646;28;20817;-88
2021/01/29 11:35:56;;;;;;;9.32;2.90;;;12.40;49.20;13.30;98606.00;;;;5050642;28;20428;-87
2021/01/29 11:38:44;;;;;;;7.60;2.00;;;12.40;48.80;13.30;98626.00;;;;5033530;28;20698;-88
2021/01/29 11:41:24;;;;;;;7.93;2.28;;;12.40;49.90;13.30;98648.00;;;;5032587;28;20459;-89
2021/01/29 11:44:04;;;;;;;7.82;2.20;;;12.30;50.40;13.10;98626.00;;;;5034845;28;20451;-88
2021/01/29 11:46:40;;;;;;;8.45;2.70;;;12.20;49.60;13.10;98627.00;;;;5032719;28;20433;-88
2021/01/29 11:49:13;;;;;;;9.85;2.90;;;12.20;50.70;13.30;98634.00;;;;5036095;28;20416;-88
2021/01/29 11:51:55;;;;;;;6.70;2.10;;;12.30;50.10;13.30;98614.00;;;;5035492;28;20420;-89
2021/01/29 11:54:37;;;;;;;6.10;1.90;;;12.40;47.50;13.40;98628.00;;;;5035326;28;20472;-88
2021/01/29 11:57:11;;;;;;;7.03;2.25;;;12.40;48.90;13.40;98625.00;;;;5031644;28;20487;-88
2021/01/29 11:59:51;;;;;;;8.23;2.60;;;12.40;49.70;13.10;98638.00;;;;5024277;28;20440;-87
2021/01/29 12:02:29;;;;;;;6.40;2.10;;;12.30;50.50;12.80;98637.00;;;;5017952;28;20544;-88
2021/01/29 12:05:16;;;;;;;7.97;2.35;;;12.00;52.90;12.50;98340.00;;;;5022472;28;20870;-87
2021/01/29 12:07:52;;;;;;;4.75;1.70;;;11.70;57.20;12.00;68928.00;;;;5025301;28;20447;-87
2021/01/29 12:10:28;;;;;;;6.20;1.85;;;11.30;61.70;11.80;98640.00;;;;5023333;28;20424;-87
2021/01/29 12:13:08;;;;;;;9.20;2.67;;;11.00;66.40;11.90;98606.00;;;;5024252;28;20432;-88
2021/01/29 12:15:40;;;;;;;6.28;2.10;;;10.90;69.10;217.30;161803.00;;;;5018811;28;20430;-87
2021/01/29 12:18:12;;;;;;;7.45;2.28;;;11.00;66.40;217.30;161928.00;;;;5001659;28;20438;-88
2021/01/29 12:20:43;;;;;;;6.78;2.47;;;11.30;65.00;12.30;98613.00;;;;5012368;28;20411;-87
2021/01/29 12:23:22;;;;;;;4.30;1.90;;;11.50;62.90;12.30;98614.00;;;;5033112;28;20430;-88
2021/01/29 12:26:07;;;;;;;4.32;1.60;;;11.70;59.90;12.50;69035.00;;;;5041048;28;20433;-87
2021/01/29 12:28:57;;;;;;;7.65;2.00;;;11.90;58.50;12.70;98585.00;;;;5036164;28;20412;-84
2021/01/29 12:31:40;;;;;;;5.43;2.00;;;12.00;57.60;12.80;98603.00;;;;5036099;28;20448;-91